الصفحة الرئيسية
METAR-TAF:

METAR-TAF

مطار :

Rarotonga, جزر كوك

دائرة عرض: 21-12S, خط طول: 159-49W, ارتفاع: 7 متر

مراقبة الطقس الحالي

تاريخ ووقت الإصدار 16 دقيقة قبل الساعة 02:30UTC
ريح 3 عقدة من الشرق/الجنوب الشرقي
درجة الحرارة 25°درجة مئوية
الرطوبة 69%
ضغط 1015 hPa
الرؤية 10 كم أو أكثر

METAR: NCRG 270230Z AUTO 12003KT 9999 NCD 25/19 Q1015

زمن: 16:46 (02:46 UTC)

توقعات

تاريخ ووقت الإصدار 3ساعات و 31 دقيقة قبل الساعة 23:15UTC
التوقعات صالحة من27 الساعة 00 UTC إلى 27 الساعة 24 UTC
ريح 8 عقدة من الشرق/الجنوب الشرقي
الرؤية 10 كم أو أكثر
غيوم قليلة على ارتفاع 3500 قدم

TAF: NCRG 262315Z 2700/2724 12008KT 9999 FEW035

أرصاد الطقس والتوقعات من أكثر من 4000 مطار (تقارير الطقس للمطار METAR والتنبؤ بالطقس بالمطارTAF).

المحطات المتاحة هي النقط الصفراء والحمراء على الخريطة.

حرك المؤشر فوق النقطة لمعرفة اسم المحطة.

ثم انقر لمعرفة أرصاد وتوقعات الطقس.

لتغيير الخارطة: اضغط على الأزرار الخضراء مع رمز الصليب الأسود للتكبير. على الزر الأخضر مع شرطة للتصغير، أو على الأسهم الخضراء للخرائط المجاورة.


METAR-TAF: